sensor_id;sensor_type;location;lat;lon;timestamp;temperature;humidity
41882;DHT22;27562;47.524;12.404;2024-02-26T00:00:31;-0.50;99.90
41882;DHT22;27562;47.524;12.404;2024-02-26T00:02:57;-0.60;99.90
41882;DHT22;27562;47.524;12.404;2024-02-26T00:05:23;-0.60;99.90
41882;DHT22;27562;47.524;12.404;2024-02-26T00:07:49;-0.70;99.90
41882;DHT22;27562;47.524;12.404;2024-02-26T00:10:14;-0.70;99.90
41882;DHT22;27562;47.524;12.404;2024-02-26T00:12:40;-0.70;99.90
41882;DHT22;27562;47.524;12.404;2024-02-26T00:15:07;-0.70;99.90
41882;DHT22;27562;47.524;12.404;2024-02-26T00:17:33;-0.80;99.90
41882;DHT22;27562;47.524;12.404;2024-02-26T00:19:59;-0.90;99.90
41882;DHT22;27562;47.524;12.404;2024-02-26T00:22:26;-0.90;99.90
41882;DHT22;27562;47.524;12.404;2024-02-26T00:24:52;-0.90;99.90
41882;DHT22;27562;47.524;12.404;2024-02-26T00:27:17;-0.90;99.90
41882;DHT22;27562;47.524;12.404;2024-02-26T00:29:43;-0.90;99.90
41882;DHT22;27562;47.524;12.404;2024-02-26T00:32:09;-0.90;99.90
41882;DHT22;27562;47.524;12.404;2024-02-26T00:34:34;-0.90;99.90
41882;DHT22;27562;47.524;12.404;2024-02-26T00:37:01;-0.80;99.90
41882;DHT22;27562;47.524;12.404;2024-02-26T00:39:26;-0.80;99.90
41882;DHT22;27562;47.524;12.404;2024-02-26T00:41:52;-0.80;99.90
41882;DHT22;27562;47.524;12.404;2024-02-26T00:44:18;-0.90;99.90
41882;DHT22;27562;47.524;12.404;2024-02-26T00:46:43;-1.00;99.90
41882;DHT22;27562;47.524;12.404;2024-02-26T00:49:09;-1.10;99.90
41882;DHT22;27562;47.524;12.404;2024-02-26T00:51:35;-1.10;99.90
41882;DHT22;27562;47.524;12.404;2024-02-26T00:54:01;-1.00;99.90
41882;DHT22;27562;47.524;12.404;2024-02-26T00:56:27;-1.00;99.90
41882;DHT22;27562;47.524;12.404;2024-02-26T00:58:53;-0.90;99.90
41882;DHT22;27562;47.524;12.404;2024-02-26T01:01:18;-1.00;99.90
41882;DHT22;27562;47.524;12.404;2024-02-26T01:03:44;-1.10;99.90
41882;DHT22;27562;47.524;12.404;2024-02-26T01:06:09;-1.10;99.90
41882;DHT22;27562;47.524;12.404;2024-02-26T01:08:35;-1.10;99.90
41882;DHT22;27562;47.524;12.404;2024-02-26T01:11:03;-1.10;99.90
41882;DHT22;27562;47.524;12.404;2024-02-26T01:13:28;-1.00;99.90
41882;DHT22;27562;47.524;12.404;2024-02-26T01:15:54;-1.10;99.90
41882;DHT22;27562;47.524;12.404;2024-02-26T01:18:20;-1.00;99.90
41882;DHT22;27562;47.524;12.404;2024-02-26T01:20:46;-1.10;99.90
41882;DHT22;27562;47.524;12.404;2024-02-26T01:23:12;-1.10;99.90
41882;DHT22;27562;47.524;12.404;2024-02-26T01:25:38;-1.00;99.90
41882;DHT22;27562;47.524;12.404;2024-02-26T01:28:05;-1.00;99.90
41882;DHT22;27562;47.524;12.404;2024-02-26T01:30:31;-1.10;99.90
41882;DHT22;27562;47.524;12.404;2024-02-26T01:32:57;-1.10;99.90
41882;DHT22;27562;47.524;12.404;2024-02-26T01:35:22;-1.10;99.90
41882;DHT22;27562;47.524;12.404;2024-02-26T01:37:48;-1.10;99.90
41882;DHT22;27562;47.524;12.404;2024-02-26T01:40:14;-1.10;99.90
41882;DHT22;27562;47.524;12.404;2024-02-26T01:42:45;-1.10;99.90
41882;DHT22;27562;47.524;12.404;2024-02-26T01:45:15;-1.10;99.90
41882;DHT22;27562;47.524;12.404;2024-02-26T01:47:53;-1.00;99.90
41882;DHT22;27562;47.524;12.404;2024-02-26T01:50:19;-1.10;99.90
41882;DHT22;27562;47.524;12.404;2024-02-26T01:52:47;-1.10;99.90
41882;DHT22;27562;47.524;12.404;2024-02-26T01:55:13;-1.20;99.90
41882;DHT22;27562;47.524;12.404;2024-02-26T01:57:44;-1.20;99.90
41882;DHT22;27562;47.524;12.404;2024-02-26T02:00:11;-1.20;99.90
41882;DHT22;27562;47.524;12.404;2024-02-26T02:02:38;-1.20;99.90
41882;DHT22;27562;47.524;12.404;2024-02-26T02:05:06;-1.30;99.90
41882;DHT22;27562;47.524;12.404;2024-02-26T02:07:34;-1.30;99.90
41882;DHT22;27562;47.524;12.404;2024-02-26T02:10:00;-1.30;99.90
41882;DHT22;27562;47.524;12.404;2024-02-26T02:12:26;-1.30;99.90
41882;DHT22;27562;47.524;12.404;2024-02-26T02:14:52;-1.20;99.90
41882;DHT22;27562;47.524;12.404;2024-02-26T02:17:19;-1.20;99.90
41882;DHT22;27562;47.524;12.404;2024-02-26T02:19:44;-1.20;99.90
41882;DHT22;27562;47.524;12.404;2024-02-26T02:22:10;-1.20;99.90
41882;DHT22;27562;47.524;12.404;2024-02-26T02:24:36;-1.30;99.90
41882;DHT22;27562;47.524;12.404;2024-02-26T02:27:02;-1.30;99.90
41882;DHT22;27562;47.524;12.404;2024-02-26T02:29:28;-1.20;99.90
41882;DHT22;27562;47.524;12.404;2024-02-26T02:31:54;-1.20;99.90
41882;DHT22;27562;47.524;12.404;2024-02-26T02:34:21;-1.20;99.90
41882;DHT22;27562;47.524;12.404;2024-02-26T02:36:53;-1.30;99.90
41882;DHT22;27562;47.524;12.404;2024-02-26T02:39:20;-1.40;99.90
41882;DHT22;27562;47.524;12.404;2024-02-26T02:41:46;-1.40;99.90
41882;DHT22;27562;47.524;12.404;2024-02-26T02:44:12;-1.40;99.90
41882;DHT22;27562;47.524;12.404;2024-02-26T02:46:38;-1.40;99.90
41882;DHT22;27562;47.524;12.404;2024-02-26T02:49:04;-1.40;99.90
41882;DHT22;27562;47.524;12.404;2024-02-26T02:51:33;-1.40;99.90
41882;DHT22;27562;47.524;12.404;2024-02-26T02:53:58;-1.30;99.90
41882;DHT22;27562;47.524;12.404;2024-02-26T02:56:24;-1.40;99.90
41882;DHT22;27562;47.524;12.404;2024-02-26T02:58:50;-1.40;99.90
41882;DHT22;27562;47.524;12.404;2024-02-26T03:01:15;-1.50;99.90
41882;DHT22;27562;47.524;12.404;2024-02-26T03:03:41;-1.50;99.90
41882;DHT22;27562;47.524;12.404;2024-02-26T03:06:06;-1.70;99.90
41882;DHT22;27562;47.524;12.404;2024-02-26T03:08:32;-1.70;99.90
41882;DHT22;27562;47.524;12.404;2024-02-26T03:11:01;-1.70;99.90
41882;DHT22;27562;47.524;12.404;2024-02-26T03:13:26;-1.60;99.90
41882;DHT22;27562;47.524;12.404;2024-02-26T03:15:52;-1.60;99.90
41882;DHT22;27562;47.524;12.404;2024-02-26T03:18:18;-1.60;99.90
41882;DHT22;27562;47.524;12.404;2024-02-26T03:20:44;-1.70;99.90
41882;DHT22;27562;47.524;12.404;2024-02-26T03:23:10;-1.70;99.90
41882;DHT22;27562;47.524;12.404;2024-02-26T03:25:38;-1.70;99.90
41882;DHT22;27562;47.524;12.404;2024-02-26T03:28:04;-1.70;99.90
41882;DHT22;27562;47.524;12.404;2024-02-26T03:30:30;-1.70;99.90
41882;DHT22;27562;47.524;12.404;2024-02-26T03:32:56;-1.70;99.90
41882;DHT22;27562;47.524;12.404;2024-02-26T03:35:22;-1.70;99.90
41882;DHT22;27562;47.524;12.404;2024-02-26T03:37:48;-1.70;99.90
41882;DHT22;27562;47.524;12.404;2024-02-26T03:40:16;-1.70;99.90
41882;DHT22;27562;47.524;12.404;2024-02-26T03:42:44;-1.70;99.90
41882;DHT22;27562;47.524;12.404;2024-02-26T03:45:10;-1.70;99.90
41882;DHT22;27562;47.524;12.404;2024-02-26T03:47:38;-1.70;99.90
41882;DHT22;27562;47.524;12.404;2024-02-26T03:50:06;-1.60;99.90
41882;DHT22;27562;47.524;12.404;2024-02-26T03:52:32;-1.60;99.90
41882;DHT22;27562;47.524;12.404;2024-02-26T03:54:58;-1.60;99.90
41882;DHT22;27562;47.524;12.404;2024-02-26T03:57:24;-1.70;99.90
41882;DHT22;27562;47.524;12.404;2024-02-26T03:59:49;-1.70;99.90
41882;DHT22;27562;47.524;12.404;2024-02-26T04:02:16;-1.70;99.90
41882;DHT22;27562;47.524;12.404;2024-02-26T04:04:42;-1.80;99.90
41882;DHT22;27562;47.524;12.404;2024-02-26T04:07:08;-1.80;99.90
41882;DHT22;27562;47.524;12.404;2024-02-26T04:09:34;-1.90;99.90
41882;DHT22;27562;47.524;12.404;2024-02-26T04:12:00;-1.90;99.90
41882;DHT22;27562;47.524;12.404;2024-02-26T04:14:25;-1.90;99.90
41882;DHT22;27562;47.524;12.404;2024-02-26T04:16:51;-1.90;99.90
41882;DHT22;27562;47.524;12.404;2024-02-26T04:19:19;-1.90;99.90
41882;DHT22;27562;47.524;12.404;2024-02-26T04:21:46;-2.00;99.90
41882;DHT22;27562;47.524;12.404;2024-02-26T04:24:11;-2.00;99.90
41882;DHT22;27562;47.524;12.404;2024-02-26T04:26:37;-2.00;99.90
41882;DHT22;27562;47.524;12.404;2024-02-26T04:29:03;-2.00;99.90
41882;DHT22;27562;47.524;12.404;2024-02-26T04:31:28;-2.00;99.90
41882;DHT22;27562;47.524;12.404;2024-02-26T04:33:55;-2.00;99.90
41882;DHT22;27562;47.524;12.404;2024-02-26T04:36:21;-1.90;99.90
41882;DHT22;27562;47.524;12.404;2024-02-26T04:38:47;-1.90;99.90
41882;DHT22;27562;47.524;12.404;2024-02-26T04:41:13;-1.90;99.90
41882;DHT22;27562;47.524;12.404;2024-02-26T04:43:39;-1.90;99.90
41882;DHT22;27562;47.524;12.404;2024-02-26T04:46:09;-1.90;99.90
41882;DHT22;27562;47.524;12.404;2024-02-26T04:48:36;-2.00;99.90
41882;DHT22;27562;47.524;12.404;2024-02-26T04:51:02;-2.00;99.90
41882;DHT22;27562;47.524;12.404;2024-02-26T04:53:28;-2.00;99.90
41882;DHT22;27562;47.524;12.404;2024-02-26T04:55:54;-2.00;99.90
41882;DHT22;27562;47.524;12.404;2024-02-26T04:58:20;-2.00;99.90
41882;DHT22;27562;47.524;12.404;2024-02-26T05:00:46;-2.00;99.90
41882;DHT22;27562;47.524;12.404;2024-02-26T05:03:11;-2.00;99.90
41882;DHT22;27562;47.524;12.404;2024-02-26T05:05:44;-1.90;99.90
41882;DHT22;27562;47.524;12.404;2024-02-26T05:08:10;-1.90;99.90
41882;DHT22;27562;47.524;12.404;2024-02-26T05:10:37;-1.90;99.90
41882;DHT22;27562;47.524;12.404;2024-02-26T05:13:05;-1.80;99.90
41882;DHT22;27562;47.524;12.404;2024-02-26T05:15:31;-1.80;99.90
41882;DHT22;27562;47.524;12.404;2024-02-26T05:17:57;-1.80;99.90
41882;DHT22;27562;47.524;12.404;2024-02-26T05:20:24;-1.80;99.90
41882;DHT22;27562;47.524;12.404;2024-02-26T05:22:50;-1.80;99.90
41882;DHT22;27562;47.524;12.404;2024-02-26T05:25:16;-1.90;99.90
41882;DHT22;27562;47.524;12.404;2024-02-26T05:27:43;-1.90;99.90
41882;DHT22;27562;47.524;12.404;2024-02-26T05:30:09;-2.00;99.90
41882;DHT22;27562;47.524;12.404;2024-02-26T05:32:35;-2.00;99.90
41882;DHT22;27562;47.524;12.404;2024-02-26T05:35:01;-2.00;99.90
41882;DHT22;27562;47.524;12.404;2024-02-26T05:37:29;-2.00;99.90
41882;DHT22;27562;47.524;12.404;2024-02-26T05:39:55;-2.00;99.90
41882;DHT22;27562;47.524;12.404;2024-02-26T05:42:21;-2.00;99.90
41882;DHT22;27562;47.524;12.404;2024-02-26T05:44:46;-2.00;99.90
41882;DHT22;27562;47.524;12.404;2024-02-26T05:47:12;-2.00;99.90
41882;DHT22;27562;47.524;12.404;2024-02-26T05:49:39;-2.00;99.90
41882;DHT22;27562;47.524;12.404;2024-02-26T05:52:05;-1.90;99.90
41882;DHT22;27562;47.524;12.404;2024-02-26T05:54:31;-1.90;99.90
41882;DHT22;27562;47.524;12.404;2024-02-26T05:56:57;-2.00;99.90
41882;DHT22;27562;47.524;12.404;2024-02-26T05:59:23;-2.00;99.90
41882;DHT22;27562;47.524;12.404;2024-02-26T06:01:48;-2.00;99.90
41882;DHT22;27562;47.524;12.404;2024-02-26T06:04:14;-2.00;99.90
41882;DHT22;27562;47.524;12.404;2024-02-26T06:06:39;-2.00;99.90
41882;DHT22;27562;47.524;12.404;2024-02-26T06:09:05;-2.00;99.90
41882;DHT22;27562;47.524;12.404;2024-02-26T06:11:31;-2.00;99.90
41882;DHT22;27562;47.524;12.404;2024-02-26T06:13:57;-2.00;99.90
41882;DHT22;27562;47.524;12.404;2024-02-26T06:16:22;-2.00;99.90
41882;DHT22;27562;47.524;12.404;2024-02-26T06:18:48;-2.00;99.90
41882;DHT22;27562;47.524;12.404;2024-02-26T06:21:14;-2.00;99.90
41882;DHT22;27562;47.524;12.404;2024-02-26T06:23:39;-2.00;99.90
41882;DHT22;27562;47.524;12.404;2024-02-26T06:26:08;-2.00;99.90
41882;DHT22;27562;47.524;12.404;2024-02-26T06:28:33;-1.90;99.90
41882;DHT22;27562;47.524;12.404;2024-02-26T06:31:01;-2.00;99.90
41882;DHT22;27562;47.524;12.404;2024-02-26T06:33:27;-2.00;99.90
41882;DHT22;27562;47.524;12.404;2024-02-26T06:35:52;-1.90;99.90
41882;DHT22;27562;47.524;12.404;2024-02-26T06:38:18;-1.90;99.90
41882;DHT22;27562;47.524;12.404;2024-02-26T06:40:44;-1.90;99.90
41882;DHT22;27562;47.524;12.404;2024-02-26T06:43:10;-1.80;99.90
41882;DHT22;27562;47.524;12.404;2024-02-26T06:45:36;-1.80;99.90
41882;DHT22;27562;47.524;12.404;2024-02-26T06:48:01;-1.70;99.90
41882;DHT22;27562;47.524;12.404;2024-02-26T06:50:27;-1.70;99.90
41882;DHT22;27562;47.524;12.404;2024-02-26T06:52:53;-1.60;99.90
41882;DHT22;27562;47.524;12.404;2024-02-26T06:55:19;-1.60;99.90
41882;DHT22;27562;47.524;12.404;2024-02-26T06:57:45;-1.60;99.90
41882;DHT22;27562;47.524;12.404;2024-02-26T07:00:11;-1.50;99.90
41882;DHT22;27562;47.524;12.404;2024-02-26T07:02:40;-1.50;99.90
41882;DHT22;27562;47.524;12.404;2024-02-26T07:05:06;-1.50;99.90
41882;DHT22;27562;47.524;12.404;2024-02-26T07:07:32;-1.50;99.90
41882;DHT22;27562;47.524;12.404;2024-02-26T07:09:58;-1.40;99.90
41882;DHT22;27562;47.524;12.404;2024-02-26T07:12:23;-1.40;99.90
41882;DHT22;27562;47.524;12.404;2024-02-26T07:14:49;-1.40;99.90
41882;DHT22;27562;47.524;12.404;2024-02-26T07:17:16;-1.40;99.90
41882;DHT22;27562;47.524;12.404;2024-02-26T07:19:42;-1.40;99.90
41882;DHT22;27562;47.524;12.404;2024-02-26T07:22:08;-1.30;99.90
41882;DHT22;27562;47.524;12.404;2024-02-26T07:24:33;-1.30;99.90
41882;DHT22;27562;47.524;12.404;2024-02-26T07:26:59;-1.30;99.90
41882;DHT22;27562;47.524;12.404;2024-02-26T07:29:25;-1.20;99.90
41882;DHT22;27562;47.524;12.404;2024-02-26T07:31:51;-1.20;99.90
41882;DHT22;27562;47.524;12.404;2024-02-26T07:34:16;-1.10;99.90
41882;DHT22;27562;47.524;12.404;2024-02-26T07:36:42;-1.10;99.90
41882;DHT22;27562;47.524;12.404;2024-02-26T07:39:08;-1.00;99.90
41882;DHT22;27562;47.524;12.404;2024-02-26T07:41:34;-0.90;99.90
41882;DHT22;27562;47.524;12.404;2024-02-26T07:43:59;-0.90;99.90
41882;DHT22;27562;47.524;12.404;2024-02-26T07:46:25;-0.80;99.90
41882;DHT22;27562;47.524;12.404;2024-02-26T07:48:51;-0.70;99.90
41882;DHT22;27562;47.524;12.404;2024-02-26T07:51:16;-0.60;99.90
41882;DHT22;27562;47.524;12.404;2024-02-26T07:53:43;-0.60;99.90
41882;DHT22;27562;47.524;12.404;2024-02-26T07:56:09;-0.50;99.90
41882;DHT22;27562;47.524;12.404;2024-02-26T07:58:35;-0.40;99.90
41882;DHT22;27562;47.524;12.404;2024-02-26T08:01:00;-0.40;99.90
41882;DHT22;27562;47.524;12.404;2024-02-26T08:03:26;-0.30;99.90
41882;DHT22;27562;47.524;12.404;2024-02-26T08:05:52;-0.20;99.90
41882;DHT22;27562;47.524;12.404;2024-02-26T08:08:18;-0.20;99.90
41882;DHT22;27562;47.524;12.404;2024-02-26T08:10:43;-0.20;99.90
41882;DHT22;27562;47.524;12.404;2024-02-26T08:13:09;-0.10;99.90
41882;DHT22;27562;47.524;12.404;2024-02-26T08:15:35;0.00;99.90
41882;DHT22;27562;47.524;12.404;2024-02-26T08:18:03;0.00;99.90
41882;DHT22;27562;47.524;12.404;2024-02-26T08:20:32;0.10;99.90
41882;DHT22;27562;47.524;12.404;2024-02-26T08:22:58;0.20;99.90
41882;DHT22;27562;47.524;12.404;2024-02-26T08:25:24;0.30;99.90
41882;DHT22;27562;47.524;12.404;2024-02-26T08:27:49;0.40;99.90
41882;DHT22;27562;47.524;12.404;2024-02-26T08:30:16;0.60;99.90
41882;DHT22;27562;47.524;12.404;2024-02-26T08:32:47;0.70;99.90
41882;DHT22;27562;47.524;12.404;2024-02-26T08:35:13;0.90;99.90
41882;DHT22;27562;47.524;12.404;2024-02-26T08:37:38;1.00;99.90
41882;DHT22;27562;47.524;12.404;2024-02-26T08:40:05;1.10;99.90
41882;DHT22;27562;47.524;12.404;2024-02-26T08:42:31;1.20;99.90
41882;DHT22;27562;47.524;12.404;2024-02-26T08:44:57;1.30;99.90
41882;DHT22;27562;47.524;12.404;2024-02-26T08:47:25;1.40;99.90
41882;DHT22;27562;47.524;12.404;2024-02-26T08:49:51;1.60;99.90
41882;DHT22;27562;47.524;12.404;2024-02-26T08:52:17;1.70;99.90
41882;DHT22;27562;47.524;12.404;2024-02-26T08:54:42;1.80;99.90
41882;DHT22;27562;47.524;12.404;2024-02-26T08:57:08;1.90;99.90
41882;DHT22;27562;47.524;12.404;2024-02-26T08:59:35;2.00;99.90
41882;DHT22;27562;47.524;12.404;2024-02-26T09:02:00;2.10;99.90
41882;DHT22;27562;47.524;12.404;2024-02-26T09:04:26;2.10;99.90
41882;DHT22;27562;47.524;12.404;2024-02-26T09:06:52;2.20;99.90
41882;DHT22;27562;47.524;12.404;2024-02-26T09:09:19;2.30;99.90
41882;DHT22;27562;47.524;12.404;2024-02-26T09:11:45;2.30;99.90
41882;DHT22;27562;47.524;12.404;2024-02-26T09:14:12;2.40;99.90
41882;DHT22;27562;47.524;12.404;2024-02-26T09:16:37;2.50;99.90
41882;DHT22;27562;47.524;12.404;2024-02-26T09:19:03;2.50;99.90
41882;DHT22;27562;47.524;12.404;2024-02-26T09:21:29;2.60;99.90
41882;DHT22;27562;47.524;12.404;2024-02-26T09:23:54;2.60;99.90
41882;DHT22;27562;47.524;12.404;2024-02-26T09:26:20;2.70;99.90
41882;DHT22;27562;47.524;12.404;2024-02-26T09:28:46;2.70;99.90
41882;DHT22;27562;47.524;12.404;2024-02-26T09:31:11;2.70;99.90
41882;DHT22;27562;47.524;12.404;2024-02-26T09:33:37;2.80;99.90
41882;DHT22;27562;47.524;12.404;2024-02-26T09:36:04;2.90;99.90
41882;DHT22;27562;47.524;12.404;2024-02-26T09:38:31;2.90;99.90
41882;DHT22;27562;47.524;12.404;2024-02-26T09:41:02;3.00;99.90
41882;DHT22;27562;47.524;12.404;2024-02-26T09:43:35;3.00;99.90
41882;DHT22;27562;47.524;12.404;2024-02-26T09:46:05;3.00;99.90
41882;DHT22;27562;47.524;12.404;2024-02-26T09:48:32;3.10;99.90
41882;DHT22;27562;47.524;12.404;2024-02-26T09:51:01;3.20;99.90
41882;DHT22;27562;47.524;12.404;2024-02-26T09:53:29;3.30;99.90
41882;DHT22;27562;47.524;12.404;2024-02-26T09:55:57;3.30;99.90
41882;DHT22;27562;47.524;12.404;2024-02-26T09:58:23;3.40;99.90
41882;DHT22;27562;47.524;12.404;2024-02-26T10:00:53;3.50;99.90
41882;DHT22;27562;47.524;12.404;2024-02-26T10:03:22;3.60;99.90
41882;DHT22;27562;47.524;12.404;2024-02-26T10:05:49;3.60;99.90
41882;DHT22;27562;47.524;12.404;2024-02-26T10:08:16;3.70;99.90
41882;DHT22;27562;47.524;12.404;2024-02-26T10:10:44;3.70;99.90
41882;DHT22;27562;47.524;12.404;2024-02-26T10:13:10;3.80;99.90
41882;DHT22;27562;47.524;12.404;2024-02-26T10:15:37;3.90;99.90
41882;DHT22;27562;47.524;12.404;2024-02-26T10:18:06;4.00;99.90
41882;DHT22;27562;47.524;12.404;2024-02-26T10:20:32;4.10;99.90
41882;DHT22;27562;47.524;12.404;2024-02-26T10:23:02;4.10;99.90
41882;DHT22;27562;47.524;12.404;2024-02-26T10:25:28;4.20;99.90
41882;DHT22;27562;47.524;12.404;2024-02-26T10:27:53;4.30;99.90
41882;DHT22;27562;47.524;12.404;2024-02-26T10:30:21;4.40;99.90
41882;DHT22;27562;47.524;12.404;2024-02-26T10:32:48;4.50;99.90
41882;DHT22;27562;47.524;12.404;2024-02-26T10:35:15;4.50;99.90
41882;DHT22;27562;47.524;12.404;2024-02-26T10:37:41;4.60;99.90
41882;DHT22;27562;47.524;12.404;2024-02-26T10:40:14;4.70;99.90
41882;DHT22;27562;47.524;12.404;2024-02-26T10:42:40;4.80;99.90
41882;DHT22;27562;47.524;12.404;2024-02-26T10:45:07;4.80;99.90
41882;DHT22;27562;47.524;12.404;2024-02-26T10:47:37;4.90;99.90
41882;DHT22;27562;47.524;12.404;2024-02-26T10:50:05;5.00;99.90
41882;DHT22;27562;47.524;12.404;2024-02-26T10:52:35;5.10;99.90
41882;DHT22;27562;47.524;12.404;2024-02-26T10:55:02;5.20;99.90
41882;DHT22;27562;47.524;12.404;2024-02-26T10:57:47;5.30;99.90
41882;DHT22;27562;47.524;12.404;2024-02-26T11:00:16;5.50;99.90
41882;DHT22;27562;47.524;12.404;2024-02-26T11:02:45;5.60;99.90
41882;DHT22;27562;47.524;12.404;2024-02-26T11:05:12;5.80;99.90
41882;DHT22;27562;47.524;12.404;2024-02-26T11:07:38;6.00;99.90
41882;DHT22;27562;47.524;12.404;2024-02-26T11:10:07;6.10;99.90
41882;DHT22;27562;47.524;12.404;2024-02-26T11:12:34;6.30;99.90
41882;DHT22;27562;47.524;12.404;2024-02-26T11:15:02;6.40;99.90
41882;DHT22;27562;47.524;12.404;2024-02-26T11:17:29;6.50;99.90
41882;DHT22;27562;47.524;12.404;2024-02-26T11:19:57;6.70;99.90
41882;DHT22;27562;47.524;12.404;2024-02-26T11:22:24;6.70;99.90
41882;DHT22;27562;47.524;12.404;2024-02-26T11:24:55;6.80;99.90
41882;DHT22;27562;47.524;12.404;2024-02-26T11:27:31;6.90;99.90
41882;DHT22;27562;47.524;12.404;2024-02-26T11:29:59;7.00;99.90
41882;DHT22;27562;47.524;12.404;2024-02-26T11:32:27;7.10;99.90
41882;DHT22;27562;47.524;12.404;2024-02-26T11:34:56;7.20;99.90
41882;DHT22;27562;47.524;12.404;2024-02-26T11:37:23;7.30;99.90
41882;DHT22;27562;47.524;12.404;2024-02-26T11:39:51;7.50;99.90
41882;DHT22;27562;47.524;12.404;2024-02-26T11:42:17;7.60;99.90
41882;DHT22;27562;47.524;12.404;2024-02-26T11:44:44;7.80;99.90
41882;DHT22;27562;47.524;12.404;2024-02-26T11:47:18;7.90;99.90
41882;DHT22;27562;47.524;12.404;2024-02-26T11:49:44;8.00;99.90
41882;DHT22;27562;47.524;12.404;2024-02-26T11:52:10;8.10;99.90
41882;DHT22;27562;47.524;12.404;2024-02-26T11:54:46;8.20;99.90
41882;DHT22;27562;47.524;12.404;2024-02-26T11:59:48;8.50;99.90
41882;DHT22;27562;47.524;12.404;2024-02-26T12:05:21;8.80;99.90
41882;DHT22;27562;47.524;12.404;2024-02-26T12:08:00;8.80;99.90
41882;DHT22;27562;47.524;12.404;2024-02-26T12:10:33;8.80;99.90
41882;DHT22;27562;47.524;12.404;2024-02-26T12:13:16;8.80;99.90
41882;DHT22;27562;47.524;12.404;2024-02-26T12:15:44;8.70;99.90
41882;DHT22;27562;47.524;12.404;2024-02-26T12:18:16;8.70;99.90
41882;DHT22;27562;47.524;12.404;2024-02-26T12:20:42;8.70;99.90
41882;DHT22;27562;47.524;12.404;2024-02-26T12:23:18;8.80;99.90
41882;DHT22;27562;47.524;12.404;2024-02-26T12:25:44;9.00;99.90
41882;DHT22;27562;47.524;12.404;2024-02-26T12:28:09;9.10;99.90
41882;DHT22;27562;47.524;12.404;2024-02-26T12:30:35;9.30;99.90
41882;DHT22;27562;47.524;12.404;2024-02-26T12:33:01;9.30;99.90
41882;DHT22;27562;47.524;12.404;2024-02-26T12:35:28;9.50;99.90
41882;DHT22;27562;47.524;12.404;2024-02-26T12:37:54;9.60;99.90
41882;DHT22;27562;47.524;12.404;2024-02-26T12:40:20;9.80;99.90
41882;DHT22;27562;47.524;12.404;2024-02-26T12:42:46;10.00;99.90
41882;DHT22;27562;47.524;12.404;2024-02-26T12:45:13;10.10;99.90
41882;DHT22;27562;47.524;12.404;2024-02-26T12:47:40;10.30;99.90
41882;DHT22;27562;47.524;12.404;2024-02-26T12:50:07;10.30;99.90
41882;DHT22;27562;47.524;12.404;2024-02-26T12:52:34;10.40;99.90
41882;DHT22;27562;47.524;12.404;2024-02-26T12:55:02;10.50;99.90
41882;DHT22;27562;47.524;12.404;2024-02-26T12:57:34;10.70;99.90
41882;DHT22;27562;47.524;12.404;2024-02-26T13:00:02;10.80;99.20
41882;DHT22;27562;47.524;12.404;2024-02-26T13:02:30;10.90;99.30
41882;DHT22;27562;47.524;12.404;2024-02-26T13:04:56;10.90;99.90
41882;DHT22;27562;47.524;12.404;2024-02-26T13:07:22;11.10;98.80
41882;DHT22;27562;47.524;12.404;2024-02-26T13:09:48;11.10;97.90
41882;DHT22;27562;47.524;12.404;2024-02-26T13:12:14;11.20;97.30
41882;DHT22;27562;47.524;12.404;2024-02-26T13:14:40;11.20;97.80
41882;DHT22;27562;47.524;12.404;2024-02-26T13:17:06;11.20;97.90
41882;DHT22;27562;47.524;12.404;2024-02-26T13:19:32;11.20;97.40
41882;DHT22;27562;47.524;12.404;2024-02-26T13:22:05;11.10;97.90
41882;DHT22;27562;47.524;12.404;2024-02-26T13:24:32;11.10;97.60
41882;DHT22;27562;47.524;12.404;2024-02-26T13:26:58;11.20;97.70
41882;DHT22;27562;47.524;12.404;2024-02-26T13:29:24;11.20;97.40
41882;DHT22;27562;47.524;12.404;2024-02-26T13:31:57;11.10;97.70
41882;DHT22;27562;47.524;12.404;2024-02-26T13:34:27;11.10;98.60
41882;DHT22;27562;47.524;12.404;2024-02-26T13:36:57;11.10;98.80
41882;DHT22;27562;47.524;12.404;2024-02-26T13:39:23;11.10;99.60
41882;DHT22;27562;47.524;12.404;2024-02-26T13:41:50;11.10;99.90
41882;DHT22;27562;47.524;12.404;2024-02-26T13:44:16;11.20;99.90
41882;DHT22;27562;47.524;12.404;2024-02-26T13:46:42;11.30;99.80
41882;DHT22;27562;47.524;12.404;2024-02-26T13:49:09;11.40;99.10
41882;DHT22;27562;47.524;12.404;2024-02-26T13:51:35;11.50;99.90
41882;DHT22;27562;47.524;12.404;2024-02-26T13:54:02;11.50;99.90
41882;DHT22;27562;47.524;12.404;2024-02-26T13:56:27;11.50;99.90
41882;DHT22;27562;47.524;12.404;2024-02-26T13:58:53;11.50;99.80
41882;DHT22;27562;47.524;12.404;2024-02-26T14:01:19;11.50;99.70
41882;DHT22;27562;47.524;12.404;2024-02-26T14:03:45;11.40;99.30
41882;DHT22;27562;47.524;12.404;2024-02-26T14:06:11;11.30;99.70
41882;DHT22;27562;47.524;12.404;2024-02-26T14:08:37;11.20;99.90
41882;DHT22;27562;47.524;12.404;2024-02-26T14:11:02;11.20;99.90
41882;DHT22;27562;47.524;12.404;2024-02-26T14:13:28;11.20;99.90
41882;DHT22;27562;47.524;12.404;2024-02-26T14:15:54;11.10;99.90
41882;DHT22;27562;47.524;12.404;2024-02-26T14:18:20;11.00;99.90
41882;DHT22;27562;47.524;12.404;2024-02-26T14:20:45;10.90;99.90
41882;DHT22;27562;47.524;12.404;2024-02-26T14:23:11;10.80;99.90
41882;DHT22;27562;47.524;12.404;2024-02-26T14:25:37;10.70;99.90
41882;DHT22;27562;47.524;12.404;2024-02-26T14:28:03;10.70;99.90
41882;DHT22;27562;47.524;12.404;2024-02-26T14:30:29;10.60;99.90
41882;DHT22;27562;47.524;12.404;2024-02-26T14:32:55;10.60;99.90
41882;DHT22;27562;47.524;12.404;2024-02-26T14:35:20;10.50;99.90
41882;DHT22;27562;47.524;12.404;2024-02-26T14:37:46;10.40;99.90
41882;DHT22;27562;47.524;12.404;2024-02-26T14:40:13;10.40;99.90
41882;DHT22;27562;47.524;12.404;2024-02-26T14:42:40;10.30;99.90
41882;DHT22;27562;47.524;12.404;2024-02-26T14:45:06;10.30;99.90
41882;DHT22;27562;47.524;12.404;2024-02-26T14:47:35;10.30;99.90
41882;DHT22;27562;47.524;12.404;2024-02-26T14:50:01;10.20;99.90
41882;DHT22;27562;47.524;12.404;2024-02-26T14:52:26;10.20;99.90
41882;DHT22;27562;47.524;12.404;2024-02-26T14:54:52;10.10;99.90
41882;DHT22;27562;47.524;12.404;2024-02-26T14:57:18;10.10;99.90
41882;DHT22;27562;47.524;12.404;2024-02-26T14:59:44;10.00;99.90
41882;DHT22;27562;47.524;12.404;2024-02-26T15:02:10;9.90;99.90
41882;DHT22;27562;47.524;12.404;2024-02-26T15:04:36;9.90;99.90
41882;DHT22;27562;47.524;12.404;2024-02-26T15:07:03;9.80;99.90
41882;DHT22;27562;47.524;12.404;2024-02-26T15:09:29;9.80;99.90
41882;DHT22;27562;47.524;12.404;2024-02-26T15:11:55;9.70;99.90
41882;DHT22;27562;47.524;12.404;2024-02-26T15:14:23;9.70;99.90
41882;DHT22;27562;47.524;12.404;2024-02-26T15:16:48;9.60;99.90
41882;DHT22;27562;47.524;12.404;2024-02-26T15:19:14;9.60;99.90
41882;DHT22;27562;47.524;12.404;2024-02-26T15:21:44;9.60;99.90